Valle Toledo, Valles Caldera, New Mexico Weather observations

Data are for 10 minute period ending at time listed.
 Day   Time   Solar   Ave.   Ave.  Ave.  Vector  Max.   Baro.   Total    
  of    of     Rad.   Air    Rel.  Wind   Wind   Wind  Press.  Precip.   
Year   Day            Temp.  Hum.  Speed  Dir.   Gust                    
2014   (MST)  Kw/m2    F      %     mph   deg.    mph    mb.     in.     
-------------------------------------------------------------------------
 109   19:30   0.00   39.0    91    2.4    15     3.6   731.5    0.00 
 109   19:40   0.00   38.9    91    2.3    56     3.6   731.6    0.01 
 109   19:50   0.00   38.8    91    3.8    74     6.6   731.6    0.00 
 109   20:00   0.00   39.0    88    3.0    48     5.4   731.6    0.00 
 109   20:10   0.00   38.9    89    3.1   325     4.8   731.7    0.00 
 109   20:20   0.00   38.8    89    2.9    19     5.4   731.9    0.00 
 109   20:30   0.00   38.7    90    2.8    23     6.0   731.9    0.00 
 109   20:40   0.00   38.7    89    4.1   357     7.2   731.9    0.00 
 109   20:50   0.00   38.9    85    4.9   349     9.6   731.9    0.00 
 109   21:00   0.00   38.7    84    4.6   353     8.4   731.9    0.00 
 109   21:10   0.00   38.9    81    5.8   339     9.0   731.9    0.00 
 109   21:20   0.00   39.4    78    5.5   358     9.6   731.8    0.00 
 109   21:30   0.00   39.6    78    4.5     3     7.8   731.8    0.00 
 109   21:40   0.00   39.4    78    4.0    15     6.6   731.7    0.00 
 109   21:50   0.00   39.0    80    3.4    29     6.0   731.5    0.00 
 109   22:00   0.00   38.7    81    1.6    22     6.6   731.5    0.00 
 109   22:10   0.00   37.7    86    2.9    81     4.8   731.5    0.00 
 109   22:20   0.00   37.1    89    2.9    54     4.8   731.6    0.00 
 109   22:30   0.00   37.1    89    3.1    37     4.2   731.5    0.00 
 109   22:40   0.00   37.1    89    3.4    35     4.2   731.5    0.00 
 109   22:50   0.00   37.2    89    3.2    39     4.2   731.5    0.00 
 109   23:00   0.00   37.3    89    2.9    48     3.6   731.5    0.00 
 109   23:10   0.00   37.2    90    2.1    57     3.0   731.6    0.00 
 109   23:20   0.00   37.1    90    1.5    30     2.4   731.6    0.00 
 109   23:30   0.00   37.1    90    2.0    45     3.0   731.6    0.00 
 109   23:40   0.00   37.2    90    2.0    30     4.2   731.7    0.00 
 109   23:50   0.00   37.3    89    2.2    21     3.0   731.8    0.00 
 110    0:00   0.00   37.5    89    1.5    41     3.6   731.8    0.00 
 110    0:10   0.00   37.4    88    1.5    35     3.6   731.7    0.00 
 110    0:20   0.00   37.5    88    1.6    33     3.6   731.6    0.00 
 110    0:30   0.00   37.5    88    2.7   350     6.0   731.6    0.00 
 110    0:40   0.00   37.8    86    1.1   351     3.0   731.6    0.00 
 110    0:50   0.00   37.7    86    2.6    18     4.8   731.5    0.00 
 110    1:00   0.00   37.6    87    2.4    34     3.6   731.5    0.00 
 110    1:10   0.00   37.5    87    2.0    10     4.2   731.4    0.00 
 110    1:20   0.00   37.4    87    3.1   358     5.4   731.3    0.00 
 110    1:30   0.00   37.3    86    2.2     6     4.8   731.3    0.00 
 110    1:40   0.00   37.1    86    2.7    21     4.2   731.2    0.00 
 110    1:50   0.00   36.6    87    2.3    37     3.0   731.0    0.00 
 110    2:00   0.00   36.1    88    1.8    25     3.6   731.0    0.00 
 110    2:10   0.00   35.6    89    3.1    42     4.2   731.0    0.00 
 110    2:20   0.00   35.2    89    3.4    38     4.2   731.0    0.00 
 110    2:30   0.00   34.5    89    3.1    40     4.2   730.9    0.00 
 110    2:40   0.00   34.1    90    3.2    44     4.2   730.8    0.00 
 110    2:50   0.00   33.7    90    3.2    45     4.2   730.7    0.00 
 110    3:00   0.00   33.4    91    3.5    40     4.2   730.7    0.00 
 110    3:10   0.00   33.3    91    2.5    58     4.2   730.7    0.00 
 110    3:20   0.00   33.3    92    3.0    49     4.2   730.8    0.00 
 110    3:30   0.00   33.2    92    3.1    46     4.2   730.8    0.00 
 110    3:40   0.00   33.4    92    2.6    57     3.6   730.6    0.00 
 110    3:50   0.00   33.6    92    2.7    55     4.2   730.6    0.00 
 110    4:00   0.00   33.3    92    2.9    43     3.6   730.6    0.00 
 110    4:10   0.00   33.1    92    2.7    44     4.2   730.5    0.00 
 110    4:20   0.00   33.2    92    2.6    53     4.2   730.6    0.00 
 110    4:30   0.00   33.5    92    2.1    48     4.2   730.6    0.00 
 110    4:40   0.00   33.5    92    2.2    22     4.2   730.6    0.00 
 110    4:50   0.00   33.3    92    2.8    30     4.2   730.6    0.00 
 110    5:00   0.00   33.2    92    2.4    19     4.2   730.6    0.00 
 110    5:10   0.00   33.3    92    1.6    30     3.6   730.7    0.00 
 110    5:20   0.00   33.2    92    1.9    30     3.6   730.8    0.00 
 110    5:30   0.00   33.2    91    2.0    56     4.2   730.8    0.00 
 110    5:40   0.01   33.4    91    1.7    47     3.6   730.8    0.00 
 110    5:50   0.01   33.6    91    2.1    32     4.2   730.9    0.00 
 110    6:00   0.02   33.8    90    2.0     5     4.2   731.0    0.00 
 110    6:10   0.03   34.2    90    2.3   357     4.2   731.1    0.00 
 110    6:20   0.06   34.9    89    3.0   325     4.8   731.2    0.00 
 110    6:30   0.07   35.6    86    2.3     1     4.2   731.2    0.00 
 110    6:40   0.07   36.1    85    1.0    67     2.4   731.2    0.00 
 110    6:50   0.08   36.7    83    1.6    30     3.6   731.4    0.00 
 110    7:00   0.11   37.2    83    0.9    57     2.4   731.4    0.00 
 110    7:10   0.15   38.1    82    1.4    67     3.0   731.4    0.00 
 110    7:20   0.14   38.7    82    1.4    70     3.0   731.4    0.00 
 110    7:30   0.13   39.4    79    1.6    82     3.6   731.4    0.00 
 110    7:40   0.12   39.9    78    0.7    61     1.8   731.5    0.00 
 110    7:50   0.20   40.3    80    1.4    78     4.2   731.6    0.00 
 110    8:00   0.43   44.0    72    0.8   311     2.4   731.6    0.00 
 110    8:10   0.33   44.4    66    2.4   247     6.0   731.7    0.00 
 110    8:20   0.35   44.1    68    2.7   237     4.8   731.7    0.00 
 110    8:30   0.45   44.5    65    5.3   282    13.7   731.7    0.00 
 110    8:40   0.60   47.1    57    8.1   314    13.7   731.8    0.00 
 110    8:50   0.72   48.8    56    7.6   298    13.1   731.8    0.00 
 110    9:00   0.46   48.0    52    9.2   293    17.3   731.9    0.00 
 110    9:10   0.49   47.3    52   10.0   298    17.9   732.0    0.00 
 110    9:20   0.79   48.4    51    9.3   295    16.7   732.0    0.01 
 110    9:30   0.52   48.7    49    9.6   295    17.3   732.0    0.00 
 110    9:40   0.64   48.9    47    9.8   300    17.9   732.0    0.00 
 110    9:50   0.93   51.5    43   10.1   318    14.9   732.0    0.00 
 110   10:00   0.58   52.5    40    6.8   315    15.5   732.0    0.01 
 110   10:10   0.88   52.0    41    8.3   300    16.1   731.8    0.00 
 110   10:20   0.94   54.0    38    8.0   308    14.3   731.8    0.00 
 110   10:30   0.61   53.1    40    8.1   308    15.5   731.8    0.01 
 110   10:40   0.79   53.6    38    8.2   324    14.3   731.8    0.00 
 110   10:50   0.78   53.9    38    6.1   302    16.1   731.8    0.00 
 110   11:00   0.47   53.4    37    7.3   293    13.1   731.7    0.01 
 110   11:10   0.36   51.2    41    6.3   277    11.9   731.7    0.00 
 110   11:20   0.59   52.2    38    7.1   287    14.3   731.7    0.00 
 110   11:30   0.60   51.5    42    7.8   298    13.7   731.8    0.01 
 110   11:40   0.80   53.3    41    7.2   253    14.3   731.6    0.00 
 110   11:50   0.82   52.0    42    6.9   254    12.5   731.5    0.00 
 110   12:00   0.59   53.0    41    7.8   258    16.1   731.4    0.00 
 110   12:10   1.21   53.0    43    6.4   258    13.1   731.4    0.01 
 110   12:20   0.76   54.6    40    8.1   272    15.5   731.4    0.00 
 110   12:30   0.63   53.8    35    7.3   280    17.3   731.3    0.00 
 110   12:40   0.37   53.8    36    7.6   290    13.1   731.4    0.00 
 110   12:50   0.64   54.2    33    7.3   296    14.3   731.4    0.01 
 110   13:00   0.56   54.8    32    8.7   306    14.9   731.3    0.00 
 110   13:10   0.62   54.8    31   10.2   302    19.1   731.4    0.00 
 110   13:20   1.00   55.7    31    8.9   296    14.3   731.4    0.00 
 110   13:30   0.61   56.6    29    8.1   309    14.3   731.4    0.00 
 110   13:40   0.47   55.4    30    7.1   320    13.7   731.3    0.00 
 110   13:50   0.51   55.6    32    8.3   301    13.7   731.3    0.01 
 110   14:00   0.32   54.5    34    7.3   305    13.7   731.4    0.00 
 110   14:10   0.54   54.4    35    5.4   305    10.2   731.4    0.00 
 110   14:20   0.50   54.8    32    6.1   284    11.3   731.4    0.00 
 110   14:30   1.02   57.1    31    7.7   271    14.9   731.2    0.00 
 110   14:40   0.40   57.0    29    7.4   276    13.1   731.0    0.00 
 110   14:50   0.20   55.3    30    7.9   316    12.5   730.9    0.00 
 110   15:00   0.52   55.5    30    6.8   307    12.5   730.9    0.00 
 110   15:10   0.73   58.4    26    8.2   291    13.1   730.8    0.00 
 110   15:20   0.21   56.0    27    7.9   268    16.1   730.7    0.00 
 110   15:30   0.49   55.4    30    8.8   295    15.5   730.8    0.01 
 110   15:40   0.71   58.0    27    7.4   270    14.3   730.7    0.00 
 110   15:50   0.66   58.8    26    9.6   284    17.3   730.7    0.00 
 110   16:00   0.63   58.7    28    9.3   289    14.9   730.7    0.00 
 110   16:10   0.35   58.0    28    8.2   300    13.1   730.8    0.00 
 110   16:20   0.12   55.5    34   11.8   330    23.3   731.1    0.00 
 110   16:30   0.17   49.9    50    9.0    38    18.5   731.4    0.00 
 110   16:40   0.21   50.5    47    6.1     7    11.3   731.3    0.00 
 110   16:50   0.09   51.8    41    5.0   353     9.6   731.2    0.00 
 110   17:00   0.07   52.0    38    4.0   339     9.6   731.3    0.00 
 110   17:10   0.15   52.0    40    2.9    64     6.0   731.5    0.00 
 110   17:20   0.11   52.4    39    6.5   324    10.8   731.5    0.00 
 110   17:30   0.17   53.1    39   12.1   326    22.1   731.7    0.00 
 110   17:40   0.21   52.0    41   11.4   344    17.9   731.8    0.00 
 110   17:50   0.29   52.1    38    9.8    23    18.5   731.8    0.00 
 110   18:00   0.21   52.9    35    5.6   350    10.2   731.5    0.00 
 110   18:10   0.08   53.2    35    6.9   315    10.8   731.5    0.00 
 110   18:20   0.04   51.8    37    6.6   328    10.8   731.6    0.00 
 110   18:30   0.02   50.7    40    6.0   317     9.6   731.7    0.00 
 110   18:40   0.01   49.1    44    3.9   266     7.8   731.9    0.00 
 110   18:50   0.00   48.9    44    6.0   304    11.3   732.1    0.00 
 110   19:00   0.00   48.1    46    2.5   340     6.0   732.1    0.00 
 110   19:10   0.00   46.6    48    3.7   330     8.4   732.2    0.00 
 110   19:20   0.00   47.0    46    3.8   315     7.8   732.3    0.00 

Return to Valle Toledo, Valles Caldera graphs page.


Western Regional Climate Center,wrcc@dri.edu